Time;durP1;ratioP1;P1;durP2;ratioP2;P2;SDS_P1;SDS_P2;PMS_P1;PMS_P2;Temp;Humidity;BMP_temperature;BMP_pressure;BME280_temperature;BME280_humidity;BME280_pressure;Samples;Min_cycle;Max_cycle;Signal;HPM_P1;HPM_P2
2021/07/28 00:00:39;;;;;;;23.95;13.35;;;17.10;99.90;;;;;;5053686;28;20132;-78
2021/07/28 00:03:06;;;;;;;18.83;13.85;;;17.10;99.90;;;;;;5054510;28;20052;-78
2021/07/28 00:05:33;;;;;;;23.10;14.10;;;17.00;99.90;;;;;;5052808;28;20140;-78
2021/07/28 00:08:00;;;;;;;19.40;12.85;;;17.00;99.90;;;;;;5057315;28;20053;-82
2021/07/28 00:10:45;;;;;;;24.45;13.77;;;16.90;99.90;;;;;;5056694;28;20536;-83
2021/07/28 00:13:25;;;;;;;19.13;13.80;;;16.90;99.90;;;;;;5052510;28;20512;-78
2021/07/28 00:15:58;;;;;;;21.20;14.88;;;16.90;99.90;;;;;;5058573;28;20139;-79
2021/07/28 00:18:41;;;;;;;24.38;13.05;;;16.90;99.90;;;;;;5062319;28;20421;-79
2021/07/28 00:24:17;;;;;;;20.60;12.52;;;17.00;99.90;;;;;;5059401;28;20657;-80
2021/07/28 00:26:46;;;;;;;21.08;13.18;;;17.00;99.90;;;;;;5056482;28;20048;-80
2021/07/28 00:29:17;;;;;;;18.73;12.85;;;16.90;99.90;;;;;;5055548;28;20152;-80
2021/07/28 00:31:47;;;;;;;16.42;12.00;;;16.90;99.90;;;;;;5055662;28;20103;-79
2021/07/28 00:34:29;;;;;;;17.02;12.18;;;16.90;99.90;;;;;;5055456;28;20048;-81
2021/07/28 00:36:56;;;;;;;18.27;12.25;;;16.90;99.90;;;;;;5053662;28;20051;-79
2021/07/28 00:39:23;;;;;;;21.75;12.57;;;16.90;99.90;;;;;;5055094;28;20054;-78
2021/07/28 00:41:50;;;;;;;16.70;11.90;;;17.00;99.90;;;;;;5053368;28;20049;-80
2021/07/28 00:44:17;;;;;;;20.75;12.23;;;17.00;99.90;;;;;;5053510;28;20136;-80
2021/07/28 00:46:45;;;;;;;16.83;11.68;;;17.00;99.90;;;;;;5053657;28;20045;-78
2021/07/28 00:49:12;;;;;;;23.02;12.70;;;17.00;99.90;;;;;;5053172;28;20140;-78
2021/07/28 00:51:39;;;;;;;20.52;11.70;;;17.00;99.90;;;;;;5052288;28;20051;-79
2021/07/28 00:54:06;;;;;;;20.13;12.40;;;17.00;99.90;;;;;;5052733;28;20086;-76
2021/07/28 00:56:33;;;;;;;18.48;12.82;;;17.10;99.90;;;;;;5051549;28;20136;-78
2021/07/28 00:59:00;;;;;;;17.58;13.05;;;17.10;99.90;;;;;;5051699;28;20057;-78
2021/07/28 01:01:27;;;;;;;18.52;12.50;;;17.10;99.90;;;;;;5051301;28;20144;-78
2021/07/28 01:03:55;;;;;;;22.13;13.40;;;17.10;99.90;;;;;;5051173;28;20140;-77
2021/07/28 01:06:22;;;;;;;17.35;12.95;;;17.10;99.90;;;;;;5051305;28;20052;-79
2021/07/28 01:08:49;;;;;;;23.33;13.27;;;17.10;99.90;;;;;;5052057;28;20464;-78
2021/07/28 01:11:24;;;;;;;22.23;13.20;;;17.10;99.90;;;;;;5051213;28;20052;-78
2021/07/28 01:13:51;;;;;;;17.27;12.63;;;17.10;99.90;;;;;;5051462;28;20084;-77
2021/07/28 01:16:21;;;;;;;18.63;13.32;;;17.10;99.90;;;;;;5050793;28;20139;-80
2021/07/28 01:18:48;;;;;;;21.73;13.38;;;17.20;99.90;;;;;;5051119;28;20124;-79
2021/07/28 01:21:18;;;;;;;23.23;14.25;;;17.10;99.90;;;;;;5051347;28;20049;-78
2021/07/28 01:23:47;;;;;;;16.83;13.48;;;17.10;99.90;;;;;;5050752;28;20049;-78
2021/07/28 01:26:16;;;;;;;21.50;14.35;;;17.10;99.90;;;;;;5051596;28;20049;-78
2021/07/28 01:28:43;;;;;;;22.80;13.50;;;17.10;99.90;;;;;;5052010;28;20447;-79
2021/07/28 01:31:11;;;;;;;20.27;13.73;;;17.10;99.90;;;;;;5076503;23;20112;-84
2021/07/28 01:33:40;;;;;;;23.08;14.07;;;17.20;99.90;;;;;;5062656;28;20075;-84
2021/07/28 01:36:09;;;;;;;21.10;13.88;;;17.20;99.90;;;;;;5062870;28;20127;-86
2021/07/28 01:38:36;;;;;;;22.60;15.15;;;17.10;99.90;;;;;;5061526;28;20088;-85
2021/07/28 01:41:07;;;;;;;20.60;13.95;;;17.10;99.90;;;;;;5060518;28;20125;-85
2021/07/28 01:46:43;;;;;;;20.65;13.25;;;17.10;99.90;;;;;;5051273;28;20075;-87
2021/07/28 01:49:13;;;;;;;18.98;13.25;;;17.20;99.90;;;;;;5066713;28;20064;-86
2021/07/28 01:51:50;;;;;;;20.80;13.60;;;17.00;99.90;;;;;;5073507;28;20049;-82
2021/07/28 01:54:21;;;;;;;18.02;14.02;;;16.90;99.90;;;;;;5061564;28;20048;-87
2021/07/28 01:56:52;;;;;;;20.50;13.90;;;16.90;99.90;;;;;;5059989;28;20132;-86
2021/07/28 01:59:21;;;;;;;22.10;14.40;;;16.80;99.90;;;;;;5059859;28;20060;-86
2021/07/28 02:01:48;;;;;;;19.98;14.13;;;16.80;99.90;;;;;;5059059;28;20048;-86
2021/07/28 02:04:15;;;;;;;22.77;13.60;;;16.80;99.90;;;;;;5056367;28;20056;-86
2021/07/28 02:06:43;;;;;;;19.02;14.27;;;16.80;99.90;;;;;;5058390;28;20057;-86
2021/07/28 02:09:10;;;;;;;18.83;14.07;;;16.80;99.90;;;;;;5059971;28;20061;-86
2021/07/28 02:11:37;;;;;;;21.60;14.45;;;16.80;99.90;;;;;;5057458;28;20464;-84
2021/07/28 02:14:05;;;;;;;20.33;14.15;;;16.80;99.90;;;;;;5055641;28;20085;-86
2021/07/28 02:16:32;;;;;;;21.20;14.05;;;16.80;99.90;;;;;;5056291;28;20136;-85
2021/07/28 02:18:59;;;;;;;18.33;14.38;;;16.80;99.90;;;;;;5060579;28;20664;-86
2021/07/28 02:21:25;;;;;;;20.90;13.20;;;16.70;99.90;;;;;;5061101;28;20132;-84
2021/07/28 02:23:52;;;;;;;21.55;14.13;;;16.80;99.90;;;;;;5059666;28;20044;-85
2021/07/28 02:26:19;;;;;;;23.60;14.45;;;16.70;99.90;;;;;;5058710;28;20049;-86
2021/07/28 02:28:46;;;;;;;19.25;14.88;;;16.70;99.90;;;;;;5061088;28;20063;-84
2021/07/28 02:31:14;;;;;;;20.00;15.13;;;16.70;99.90;;;;;;5063245;28;20459;-87
2021/07/28 02:33:41;;;;;;;19.50;14.25;;;16.70;99.90;;;;;;5062301;28;20059;-85
2021/07/28 02:36:08;;;;;;;18.92;13.52;;;16.70;99.90;;;;;;5060676;28;20280;-86
2021/07/28 02:38:35;;;;;;;19.55;14.63;;;16.70;99.90;;;;;;5065090;28;20136;-85
2021/07/28 02:41:01;;;;;;;29.15;14.05;;;16.70;99.90;;;;;;5069401;28;20132;-84
2021/07/28 02:43:28;;;;;;;18.35;13.85;;;16.80;99.90;;;;;;5068386;28;20097;-85
2021/07/28 02:45:55;;;;;;;20.83;14.18;;;16.80;99.90;;;;;;5066447;28;20103;-85
2021/07/28 02:48:24;;;;;;;19.52;14.18;;;16.80;99.90;;;;;;5062249;28;20103;-86
2021/07/28 02:50:50;;;;;;;19.45;15.07;;;16.80;99.90;;;;;;5064579;28;20076;-86
2021/07/28 02:53:20;;;;;;;22.00;15.60;;;16.80;99.90;;;;;;5065851;28;20085;-85
2021/07/28 02:55:47;;;;;;;21.98;14.73;;;16.80;99.90;;;;;;5068940;28;20116;-84
2021/07/28 02:58:14;;;;;;;21.45;15.38;;;16.80;99.90;;;;;;5070405;28;20053;-85
2021/07/28 03:00:41;;;;;;;22.45;15.00;;;16.90;99.90;;;;;;5070478;28;20053;-85
2021/07/28 03:03:09;;;;;;;19.60;16.10;;;17.00;99.90;;;;;;5068208;28;20105;-86
2021/07/28 03:05:37;;;;;;;23.25;15.60;;;16.90;99.90;;;;;;5068226;28;20254;-86
2021/07/28 03:08:04;;;;;;;25.30;15.80;;;16.90;99.90;;;;;;5067908;28;20392;-86
2021/07/28 03:10:31;;;;;;;22.20;15.70;;;16.90;99.90;;;;;;5068813;28;20053;-84
2021/07/28 03:12:58;;;;;;;17.17;14.98;;;16.90;99.90;;;;;;5068110;28;20073;-83
2021/07/28 03:15:25;;;;;;;21.63;15.55;;;16.90;99.90;;;;;;5066992;28;20076;-86
2021/07/28 03:17:51;;;;;;;23.00;15.07;;;16.90;99.90;;;;;;5062094;28;20051;-86
2021/07/28 03:20:18;;;;;;;21.33;15.27;;;16.90;99.90;;;;;;5065097;28;20139;-85
2021/07/28 03:22:46;;;;;;;19.40;15.93;;;16.80;99.90;;;;;;5064021;28;20390;-84
2021/07/28 03:25:14;;;;;;;26.27;15.93;;;16.80;99.90;;;;;;5065209;28;20052;-85
2021/07/28 03:27:41;;;;;;;28.85;17.30;;;16.80;99.90;;;;;;5064798;28;20084;-85
2021/07/28 03:30:08;;;;;;;26.27;16.30;;;16.80;99.90;;;;;;5064827;28;20140;-84
2021/07/28 03:32:35;;;;;;;25.02;16.75;;;16.70;99.90;;;;;;5062508;28;20096;-85
2021/07/28 03:35:02;;;;;;;24.50;16.30;;;16.70;99.90;;;;;;5063037;28;20069;-85
2021/07/28 03:37:29;;;;;;;22.25;16.67;;;16.60;99.90;;;;;;5062989;28;20056;-85
2021/07/28 03:40:01;;;;;;;19.10;15.82;;;16.60;99.90;;;;;;5061308;28;20125;-85
2021/07/28 03:42:28;;;;;;;25.37;15.53;;;16.60;99.90;;;;;;5062129;28;20051;-84
2021/07/28 03:44:55;;;;;;;23.63;15.63;;;16.70;99.90;;;;;;5060860;28;20330;-84
2021/07/28 03:47:22;;;;;;;23.55;16.85;;;16.70;99.90;;;;;;5062973;28;20049;-83
2021/07/28 03:49:49;;;;;;;22.48;15.48;;;16.70;99.90;;;;;;5059831;28;20072;-83
2021/07/28 03:52:16;;;;;;;20.40;16.58;;;16.80;99.90;;;;;;5060402;28;20572;-84
2021/07/28 03:54:44;;;;;;;22.35;17.35;;;16.70;99.90;;;;;;5058448;28;20112;-84
2021/07/28 03:57:12;;;;;;;22.27;16.73;;;16.70;99.90;;;;;;5059202;28;20056;-84
2021/07/28 03:59:39;;;;;;;25.10;16.27;;;16.70;99.90;;;;;;5060606;28;20135;-84
2021/07/28 04:02:06;;;;;;;25.15;16.42;;;16.70;99.90;;;;;;5059151;28;20564;-85
2021/07/28 04:04:33;;;;;;;23.23;17.60;;;16.60;99.90;;;;;;5059867;28;20131;-85
2021/07/28 04:07:00;;;;;;;22.58;16.92;;;16.60;99.90;;;;;;5059849;28;20048;-85
2021/07/28 04:09:27;;;;;;;19.08;16.05;;;16.60;99.90;;;;;;5060630;28;20087;-86
2021/07/28 04:11:54;;;;;;;21.13;16.80;;;16.70;99.90;;;;;;5063092;28;20088;-83
2021/07/28 04:14:22;;;;;;;21.42;16.50;;;16.80;99.90;;;;;;5063925;28;20053;-85
2021/07/28 04:16:49;;;;;;;23.23;17.10;;;16.80;99.90;;;;;;5064572;28;20343;-85
2021/07/28 04:19:16;;;;;;;23.55;16.98;;;16.90;99.90;;;;;;5062383;28;20049;-86
2021/07/28 04:21:43;;;;;;;23.75;16.60;;;16.90;99.90;;;;;;5060169;28;20417;-82
2021/07/28 04:24:10;;;;;;;20.27;16.80;;;16.90;99.90;;;;;;5058505;28;20052;-86
2021/07/28 04:26:36;;;;;;;23.45;17.42;;;17.00;99.90;;;;;;5059945;28;20132;-82
2021/07/28 04:29:03;;;;;;;19.83;17.15;;;17.00;99.90;;;;;;5059831;28;20049;-84
2021/07/28 04:31:32;;;;;;;21.48;15.77;;;17.10;99.90;;;;;;5057506;28;20136;-84
2021/07/28 04:33:58;;;;;;;25.00;16.70;;;17.10;99.90;;;;;;5060981;28;20123;-84
2021/07/28 04:36:25;;;;;;;24.67;17.25;;;17.10;99.90;;;;;;5059591;28;20563;-83
2021/07/28 04:38:52;;;;;;;19.38;16.25;;;17.10;99.90;;;;;;5063528;28;20060;-85
2021/07/28 04:41:19;;;;;;;23.77;16.98;;;17.20;99.90;;;;;;5063886;28;20133;-85
2021/07/28 04:43:46;;;;;;;26.15;16.33;;;17.20;99.90;;;;;;5069021;28;20045;-84
2021/07/28 04:46:13;;;;;;;23.05;16.50;;;17.30;99.90;;;;;;5061126;28;20110;-84
2021/07/28 04:48:41;;;;;;;24.33;17.55;;;17.30;99.90;;;;;;5057085;28;20055;-83
2021/07/28 04:51:08;;;;;;;23.40;16.02;;;17.30;99.90;;;;;;5055845;28;20076;-83
2021/07/28 04:53:34;;;;;;;22.98;17.30;;;17.30;99.90;;;;;;5063303;28;20108;-83
2021/07/28 04:56:01;;;;;;;20.38;15.73;;;17.30;99.90;;;;;;5062759;28;20081;-83
2021/07/28 04:58:28;;;;;;;23.13;16.33;;;17.30;99.90;;;;;;5061314;28;20088;-85
2021/07/28 05:00:55;;;;;;;23.60;16.10;;;17.30;99.90;;;;;;5061806;28;20049;-82
2021/07/28 05:03:22;;;;;;;24.52;17.45;;;17.40;99.90;;;;;;5062999;28;20129;-86
2021/07/28 05:05:50;;;;;;;22.40;16.27;;;17.40;99.90;;;;;;5061158;28;20129;-83
2021/07/28 05:08:17;;;;;;;19.88;15.57;;;17.50;99.90;;;;;;5064322;28;20109;-82
2021/07/28 05:10:44;;;;;;;23.80;16.50;;;17.50;99.90;;;;;;5063599;28;20104;-82
2021/07/28 05:13:11;;;;;;;23.00;15.88;;;17.50;99.90;;;;;;5064667;28;20048;-83
2021/07/28 05:15:38;;;;;;;19.42;15.68;;;17.60;99.90;;;;;;5065014;28;20220;-82
2021/07/28 05:18:05;;;;;;;25.05;16.02;;;17.60;99.90;;;;;;5064027;28;20109;-82
2021/07/28 05:20:32;;;;;;;19.45;15.82;;;17.60;99.90;;;;;;5064856;28;20116;-77
2021/07/28 05:23:00;;;;;;;26.23;15.20;;;17.70;99.90;;;;;;5064026;28;20136;-84
2021/07/28 05:25:28;;;;;;;24.55;16.08;;;17.70;99.90;;;;;;5066193;28;20132;-81
2021/07/28 05:27:55;;;;;;;18.17;15.40;;;17.70;99.90;;;;;;5063219;28;20141;-84
2021/07/28 05:30:21;;;;;;;21.00;14.98;;;17.80;99.90;;;;;;5063603;28;20139;-84
2021/07/28 05:32:48;;;;;;;19.02;15.10;;;17.80;99.90;;;;;;5065004;28;20105;-84
2021/07/28 05:35:15;;;;;;;17.58;14.13;;;17.80;99.90;;;;;;5063873;28;20131;-85
2021/07/28 05:37:42;;;;;;;22.65;14.52;;;17.80;99.90;;;;;;5065612;28;20091;-82
2021/07/28 05:40:12;;;;;;;20.15;15.70;;;17.80;99.90;;;;;;5067839;28;20056;-80
2021/07/28 05:42:38;;;;;;;18.10;14.07;;;17.80;99.90;;;;;;5066260;28;20104;-83
2021/07/28 05:45:06;;;;;;;18.50;13.43;;;17.80;99.90;;;;;;5066925;28;20083;-81
2021/07/28 05:47:33;;;;;;;17.02;13.95;;;17.90;99.90;;;;;;5045498;28;20105;-82
2021/07/28 05:50:00;;;;;;;17.48;13.23;;;18.00;99.90;;;;;;5051398;28;20545;-81
2021/07/28 05:52:27;;;;;;;17.35;13.13;;;18.10;99.90;;;;;;5053432;28;20063;-82
2021/07/28 05:54:54;;;;;;;18.05;13.23;;;18.20;99.90;;;;;;5051660;28;20072;-80
2021/07/28 05:57:22;;;;;;;19.33;12.55;;;18.20;99.90;;;;;;5050946;28;20045;-81
2021/07/28 05:59:49;;;;;;;18.98;13.30;;;18.30;99.90;;;;;;5052732;28;20461;-80
2021/07/28 06:02:15;;;;;;;19.00;13.00;;;18.30;99.90;;;;;;5058239;28;20080;-82
2021/07/28 06:04:42;;;;;;;19.05;13.48;;;18.30;99.90;;;;;;5044735;28;20086;-82
2021/07/28 06:07:09;;;;;;;19.52;12.23;;;18.30;99.90;;;;;;5044861;28;20071;-79
2021/07/28 06:09:36;;;;;;;15.55;13.48;;;18.30;99.90;;;;;;5044499;28;20111;-82
2021/07/28 06:12:03;;;;;;;18.58;13.82;;;18.30;99.90;;;;;;5051198;28;20122;-82
2021/07/28 06:14:31;;;;;;;16.52;12.75;;;18.40;99.90;;;;;;5051392;28;20631;-82
2021/07/28 06:16:58;;;;;;;21.08;12.57;;;18.40;99.90;;;;;;5053118;28;20152;-81
2021/07/28 06:19:25;;;;;;;19.83;12.25;;;18.40;99.90;;;;;;5055985;28;20489;-80
2021/07/28 06:21:52;;;;;;;16.88;13.88;;;18.40;99.90;;;;;;5055416;28;20120;-83
2021/07/28 06:24:19;;;;;;;15.60;11.60;;;18.40;99.90;;;;;;5059668;28;20052;-83
2021/07/28 06:26:46;;;;;;;18.80;12.32;;;18.40;99.90;;;;;;5060010;28;20103;-82
2021/07/28 06:29:13;;;;;;;15.82;12.10;;;18.50;99.90;;;;;;5053003;28;20068;-83
2021/07/28 06:31:43;;;;;;;18.23;12.23;;;18.60;99.90;;;;;;5062890;28;20068;-82
2021/07/28 06:34:10;;;;;;;16.83;10.80;;;18.70;99.90;;;;;;5064938;28;20101;-83
2021/07/28 06:36:37;;;;;;;16.25;10.63;;;18.80;99.90;;;;;;5063978;28;20076;-83
2021/07/28 06:39:04;;;;;;;17.80;10.43;;;18.90;99.90;;;;;;5064398;28;20108;-84
2021/07/28 06:41:31;;;;;;;14.40;10.60;;;18.90;99.90;;;;;;5066103;28;20155;-85
2021/07/28 06:43:58;;;;;;;13.75;10.45;;;18.90;99.90;;;;;;5065365;28;20075;-83
2021/07/28 06:46:25;;;;;;;17.10;11.23;;;19.00;99.90;;;;;;5067114;28;20136;-86
2021/07/28 06:48:53;;;;;;;14.13;10.90;;;19.00;99.90;;;;;;5068423;28;20052;-84
2021/07/28 06:51:20;;;;;;;16.30;11.10;;;19.10;99.90;;;;;;5068972;28;20128;-85
2021/07/28 06:53:47;;;;;;;16.08;11.02;;;19.10;99.90;;;;;;5064344;28;20124;-85
2021/07/28 06:56:15;;;;;;;13.50;10.57;;;19.30;99.90;;;;;;5062459;28;20068;-85
2021/07/28 06:58:41;;;;;;;12.30;9.68;;;19.40;99.90;;;;;;5062220;28;20052;-84
2021/07/28 07:01:09;;;;;;;11.68;9.30;;;19.60;99.90;;;;;;5063739;28;20117;-86
2021/07/28 07:03:36;;;;;;;12.90;9.77;;;19.80;99.90;;;;;;5063614;28;20045;-84
2021/07/28 07:06:04;;;;;;;13.93;9.50;;;20.10;99.90;;;;;;5063560;28;20063;-84
2021/07/28 07:08:31;;;;;;;17.58;9.77;;;20.20;99.90;;;;;;5059894;28;20122;-85
2021/07/28 07:10:58;;;;;;;11.98;9.60;;;20.40;99.90;;;;;;5059600;28;20116;-85
2021/07/28 07:13:25;;;;;;;13.00;9.80;;;20.50;99.90;;;;;;5059180;28;20055;-84
2021/07/28 07:15:52;;;;;;;13.02;9.93;;;20.70;99.90;;;;;;5058846;28;20056;-84
2021/07/28 07:18:19;;;;;;;18.38;12.40;;;20.70;99.90;;;;;;5061553;28;20076;-85
2021/07/28 07:20:46;;;;;;;12.73;10.00;;;20.60;99.90;;;;;;5063951;28;20135;-84
2021/07/28 07:23:14;;;;;;;13.35;9.95;;;20.60;99.90;;;;;;5064803;28;20045;-84
2021/07/28 07:25:41;;;;;;;18.35;10.13;;;20.70;99.90;;;;;;5064461;28;20076;-85
2021/07/28 07:28:08;;;;;;;15.40;9.75;;;20.80;99.90;;;;;;5063737;28;20049;-85
2021/07/28 07:35:44;;;;;;;15.45;9.07;;;21.00;99.90;;;;;;5053333;28;20286;-77
2021/07/28 07:38:11;;;;;;;11.20;9.48;;;21.10;99.90;;;;;;5053395;28;20497;-78
2021/07/28 07:40:39;;;;;;;16.17;9.52;;;21.40;99.90;;;;;;5052943;28;20119;-77
2021/07/28 07:43:07;;;;;;;12.98;9.50;;;21.60;99.90;;;;;;5052888;28;20080;-77
2021/07/28 07:45:36;;;;;;;11.23;8.93;;;21.80;99.90;;;;;;5053372;28;20131;-78
2021/07/28 07:48:04;;;;;;;14.10;9.07;;;22.10;99.90;;;;;;5053130;28;20057;-78
2021/07/28 07:50:35;;;;;;;11.75;8.85;;;22.10;99.90;;;;;;5052718;28;20044;-79
2021/07/28 07:53:02;;;;;;;12.10;9.07;;;22.30;99.90;;;;;;5052852;28;20049;-79
2021/07/28 07:55:29;;;;;;;11.60;9.02;;;22.40;99.90;;;;;;5052861;28;20131;-78
2021/07/28 07:57:57;;;;;;;12.77;8.27;;;22.60;99.90;;;;;;5052755;28;20139;-79
2021/07/28 08:00:24;;;;;;;14.02;6.78;;;22.40;99.90;;;;;;5053106;28;20580;-77
2021/07/28 08:02:51;;;;;;;12.15;7.35;;;21.90;99.90;;;;;;5053003;28;20532;-78
2021/07/28 08:05:18;;;;;;;11.95;7.57;;;21.10;99.90;;;;;;5052758;28;20136;-78
2021/07/28 08:07:45;;;;;;;11.45;7.05;;;20.30;99.90;;;;;;5052760;28;20049;-77
2021/07/28 08:10:12;;;;;;;13.30;8.25;;;19.70;99.90;;;;;;5052609;28;20056;-78
2021/07/28 08:12:39;;;;;;;13.35;8.15;;;19.60;99.90;;;;;;5052655;28;20052;-78
2021/07/28 08:15:07;;;;;;;15.18;7.85;;;19.40;99.90;;;;;;5052207;28;20135;-78
2021/07/28 08:17:34;;;;;;;10.25;6.97;;;19.30;99.90;;;;;;5052445;28;20041;-77
2021/07/28 08:20:01;;;;;;;9.13;5.95;;;19.70;99.90;;;;;;5052532;28;20091;-77
2021/07/28 08:22:29;;;;;;;8.00;5.43;;;20.60;99.90;;;;;;5052358;28;20557;-76
2021/07/28 08:24:56;;;;;;;8.30;5.60;;;21.50;99.90;;;;;;5052041;28;20474;-77
2021/07/28 08:27:25;;;;;;;6.22;5.63;;;22.20;99.90;;;;;;5051773;28;20543;-80
2021/07/28 08:29:52;;;;;;;6.70;5.38;;;22.70;99.90;;;;;;5052305;28;20170;-77
2021/07/28 08:32:21;;;;;;;6.47;5.25;;;23.40;99.90;;;;;;5052034;28;20406;-77
2021/07/28 08:34:48;;;;;;;6.85;5.05;;;24.00;99.90;;;;;;5052143;28;20140;-77
2021/07/28 08:37:16;;;;;;;6.80;5.03;;;24.40;99.90;;;;;;5051976;28;20059;-76
2021/07/28 08:39:43;;;;;;;7.53;5.20;;;24.70;99.90;;;;;;5051829;28;20509;-78
2021/07/28 08:42:11;;;;;;;6.72;4.90;;;25.00;99.90;;;;;;5051995;28;20479;-77
2021/07/28 08:44:41;;;;;;;7.07;5.15;;;25.30;99.90;;;;;;5051549;28;20438;-77
2021/07/28 08:47:08;;;;;;;7.10;5.43;;;25.10;99.90;;;;;;5051868;28;20056;-77
2021/07/28 08:49:37;;;;;;;9.57;5.53;;;25.30;99.90;;;;;;5051764;28;20137;-77
2021/07/28 08:52:04;;;;;;;9.07;5.47;;;25.20;99.90;;;;;;5051603;28;20136;-78
2021/07/28 08:54:31;;;;;;;7.20;5.40;;;25.00;99.90;;;;;;5051392;28;20049;-76
2021/07/28 08:57:00;;;;;;;9.05;5.45;;;24.70;99.90;;;;;;5051742;28;20056;-77
2021/07/28 08:59:29;;;;;;;8.20;5.10;;;24.60;99.90;;;;;;5051228;28;20559;-76
2021/07/28 09:01:56;;;;;;;6.43;5.18;;;24.80;99.90;;;;;;5051138;28;20048;-77
2021/07/28 09:04:24;;;;;;;6.65;5.43;;;24.30;99.90;;;;;;5051004;28;20132;-76
2021/07/28 09:06:53;;;;;;;7.97;5.47;;;24.20;99.90;;;;;;5051266;28;20044;-76
2021/07/28 09:09:21;;;;;;;9.43;6.05;;;24.00;99.90;;;;;;5051388;28;20156;-75
2021/07/28 09:11:56;;;;;;;7.00;5.90;;;23.40;99.90;;;;;;5049687;28;20136;-75
2021/07/28 09:14:24;;;;;;;8.23;6.22;;;23.00;99.90;;;;;;5050978;28;20092;-77
2021/07/28 09:16:51;;;;;;;8.65;6.00;;;23.10;99.90;;;;;;5051100;28;20059;-76
2021/07/28 09:19:41;;;;;;;8.30;6.07;;;23.30;99.90;;;;;;5051046;28;20053;-76
2021/07/28 09:22:11;;;;;;;7.15;5.53;;;23.50;99.90;;;;;;5050998;28;20055;-75
2021/07/28 09:24:40;;;;;;;7.28;6.05;;;23.70;99.90;;;;;;5050787;28;20067;-76
2021/07/28 09:27:07;;;;;;;8.18;5.68;;;23.70;99.90;;;;;;5051093;28;20417;-77
2021/07/28 09:29:38;;;;;;;8.77;5.72;;;24.00;99.90;;;;;;5050933;28;20052;-77
2021/07/28 09:32:10;;;;;;;7.22;5.90;;;24.30;99.90;;;;;;5050948;28;20053;-76
2021/07/28 09:34:38;;;;;;;7.53;5.30;;;24.60;99.90;;;;;;5050482;28;20072;-76
2021/07/28 09:37:10;;;;;;;8.40;5.68;;;25.10;99.90;;;;;;5050676;28;20084;-77
2021/07/28 09:39:39;;;;;;;7.10;5.38;;;25.60;99.90;;;;;;5051088;28;20053;-76
2021/07/28 09:42:11;;;;;;;6.82;5.75;;;26.10;99.90;;;;;;5050604;28;20135;-79
2021/07/28 09:44:41;;;;;;;6.93;5.30;;;25.70;99.90;;;;;;5050412;28;20118;-80
2021/07/28 09:47:10;;;;;;;7.00;5.57;;;25.50;99.90;;;;;;5051061;28;20413;-78
2021/07/28 09:49:38;;;;;;;7.28;5.40;;;25.20;99.90;;;;;;5050756;28;20055;-79
2021/07/28 09:52:22;;;;;;;6.97;5.22;;;25.20;99.90;;;;;;5050728;28;20099;-81
2021/07/28 09:54:52;;;;;;;5.93;4.80;;;25.40;99.90;;;;;;5051031;28;20420;-78
2021/07/28 09:57:21;;;;;;;8.88;5.20;;;25.30;99.90;;;;;;5050744;28;20447;-76
2021/07/28 09:59:52;;;;;;;6.85;5.00;;;25.10;99.90;;;;;;5050543;28;20053;-77
2021/07/28 10:02:21;;;;;;;7.50;5.40;;;24.80;99.90;;;;;;5049955;28;20076;-77
2021/07/28 10:04:49;;;;;;;8.77;5.10;;;24.50;99.90;;;;;;5050380;28;20140;-77
2021/07/28 10:07:18;;;;;;;6.88;4.65;;;24.20;99.90;;;;;;5050901;28;20052;-77
2021/07/28 10:10:01;;;;;;;8.88;5.25;;;24.20;99.90;;;;;;5050890;28;20048;-74
2021/07/28 10:12:29;;;;;;;9.07;5.55;;;24.20;99.90;;;;;;5050080;28;20136;-78
2021/07/28 10:14:56;;;;;;;6.40;4.70;;;24.20;99.90;;;;;;5050065;28;20379;-77
2021/07/28 10:17:23;;;;;;;5.43;4.82;;;24.50;99.90;;;;;;5050332;28;20235;-76
2021/07/28 10:19:50;;;;;;;8.68;4.75;;;24.80;99.90;;;;;;5050991;28;20140;-79
2021/07/28 10:22:18;;;;;;;9.65;5.30;;;24.90;99.90;;;;;;5050579;28;20561;-77
2021/07/28 10:24:46;;;;;;;8.75;5.35;;;24.70;99.90;;;;;;5049986;28;20080;-76
2021/07/28 10:27:15;;;;;;;7.95;5.15;;;24.30;99.90;;;;;;5050784;28;20470;-77
2021/07/28 10:29:42;;;;;;;7.63;5.18;;;24.00;99.90;;;;;;5050473;28;20428;-77
2021/07/28 10:32:09;;;;;;;6.53;5.10;;;23.90;99.90;;;;;;5050161;28;20106;-77
2021/07/28 10:34:37;;;;;;;6.97;5.25;;;24.00;99.90;;;;;;5050846;28;20052;-79
2021/07/28 10:37:05;;;;;;;9.45;5.00;;;24.20;99.90;;;;;;5050572;28;20536;-79
2021/07/28 10:39:36;;;;;;;5.72;4.93;;;24.40;99.90;;;;;;5050638;28;20083;-77
2021/07/28 10:42:04;;;;;;;7.18;5.22;;;24.50;99.90;;;;;;5050777;28;20049;-77
2021/07/28 10:44:32;;;;;;;6.20;5.03;;;24.60;99.90;;;;;;5051246;28;20131;-78
2021/07/28 10:47:33;;;;;;;6.28;4.80;;;24.60;99.90;;;;;;5050515;28;20064;-77
2021/07/28 10:50:00;;;;;;;8.63;5.05;;;24.60;99.90;;;;;;5053637;28;20554;-77
2021/07/28 10:52:47;;;;;;;6.30;4.68;;;24.40;99.90;;;;;;5055102;28;20135;-77
2021/07/28 10:55:22;;;;;;;6.28;5.00;;;24.20;99.90;;;;;;5054487;28;20075;-77
2021/07/28 10:58:19;;;;;;;7.40;4.80;;;24.30;99.90;;;;;;5053873;28;20132;-77
2021/07/28 11:00:58;;;;;;;7.40;4.60;;;24.30;99.90;;;;;;5052665;28;20068;-79
2021/07/28 11:03:35;;;;;;;5.72;4.40;;;24.30;99.90;;;;;;5053574;28;20052;-78
2021/07/28 11:06:17;;;;;;;7.97;4.60;;;24.30;99.90;;;;;;5052908;28;20045;-77
2021/07/28 11:08:44;;;;;;;9.32;4.47;;;24.30;99.90;;;;;;5038186;28;20050;-81
2021/07/28 11:11:19;;;;;;;5.57;4.57;;;24.40;99.90;;;;;;5052327;28;20497;-78
2021/07/28 11:13:47;;;;;;;7.40;4.25;;;24.30;99.90;;;;;;5052954;28;20140;-77
2021/07/28 11:16:16;;;;;;;6.70;4.60;;;24.20;99.90;;;;;;5053354;28;20438;-79
2021/07/28 11:18:44;;;;;;;6.13;4.57;;;24.20;99.90;;;;;;5053303;28;20048;-78
2021/07/28 11:21:13;;;;;;;5.78;4.57;;;24.10;99.90;;;;;;5052536;28;20041;-77
2021/07/28 11:23:48;;;;;;;5.45;4.05;;;24.20;99.90;;;;;;5052943;28;20077;-77
2021/07/28 11:26:17;;;;;;;7.32;4.65;;;24.40;99.90;;;;;;5078375;28;20113;-78
2021/07/28 11:28:45;;;;;;;5.85;4.70;;;24.70;99.90;;;;;;5090766;28;20094;-77
2021/07/28 11:31:24;;;;;;;5.28;4.63;;;25.10;99.90;;;;;;5093705;28;20051;-78
2021/07/28 11:34:06;;;;;;;8.32;4.70;;;25.40;99.90;;;;;;5094095;28;20134;-78
2021/07/28 11:36:34;;;;;;;5.35;4.50;;;25.60;99.90;;;;;;5091969;28;20102;-78
2021/07/28 11:39:11;;;;;;;9.98;4.40;;;25.70;99.90;;;;;;5094446;28;20048;-76
2021/07/28 11:41:38;;;;;;;7.72;4.75;;;25.70;99.90;;;;;;5093933;28;20051;-78
2021/07/28 11:44:08;;;;;;;6.10;4.00;;;25.80;99.90;;;;;;5093239;28;20420;-78
2021/07/28 11:46:36;;;;;;;5.18;3.80;;;25.90;99.90;;;;;;5095437;28;20090;-77
2021/07/28 11:49:08;;;;;;;4.65;4.18;;;25.80;99.90;;;;;;5094605;28;20048;-77
2021/07/28 11:51:39;;;;;;;4.72;3.90;;;25.90;99.90;;;;;;5094746;28;20074;-79
2021/07/28 11:54:11;;;;;;;5.25;4.50;;;25.80;99.90;;;;;;5094722;28;20078;-78
2021/07/28 11:56:39;;;;;;;6.45;4.30;;;25.60;99.90;;;;;;5095121;28;20052;-78
2021/07/28 11:59:06;;;;;;;4.95;3.90;;;25.50;99.90;;;;;;5096036;28;20172;-79
2021/07/28 12:01:34;;;;;;;8.55;4.18;;;25.40;99.90;;;;;;5094952;28;20072;-77
2021/07/28 12:04:05;;;;;;;4.72;4.03;;;25.40;99.90;;;;;;5093415;28;20187;-76
2021/07/28 12:06:35;;;;;;;5.78;4.13;;;25.60;99.90;;;;;;5093276;28;20044;-78
2021/07/28 12:09:08;;;;;;;5.90;4.22;;;25.80;99.90;;;;;;5093664;28;20062;-77
2021/07/28 12:11:45;;;;;;;6.13;4.30;;;25.90;99.90;;;;;;5093141;28;20507;-77
2021/07/28 12:14:30;;;;;;;8.35;4.10;;;25.70;99.90;;;;;;5092102;28;20060;-78
2021/07/28 12:16:59;;;;;;;5.43;4.30;;;25.40;99.90;;;;;;5092339;28;20079;-78
2021/07/28 12:19:30;;;;;;;6.22;4.20;;;25.30;99.90;;;;;;5092256;28;20059;-79
2021/07/28 12:22:03;;;;;;;4.80;3.90;;;25.30;99.90;;;;;;5092508;28;20052;-78
2021/07/28 12:24:35;;;;;;;5.35;3.97;;;25.10;99.90;;;;;;5091827;28;20139;-77
2021/07/28 12:27:37;;;;;;;5.47;4.30;;;25.10;99.90;;;;;;5092164;28;20052;-77
2021/07/28 12:30:21;;;;;;;4.70;3.75;;;25.10;99.90;;;;;;5066224;28;20078;-77
2021/07/28 12:32:49;;;;;;;6.97;4.13;;;25.10;99.90;;;;;;5089539;28;20072;-77
2021/07/28 12:35:38;;;;;;;4.80;4.00;;;25.30;99.90;;;;;;5091738;28;20044;-78
2021/07/28 12:38:10;;;;;;;7.03;4.60;;;25.40;99.90;;;;;;5091851;28;20051;-76
2021/07/28 12:40:38;;;;;;;6.80;4.63;;;25.50;99.90;;;;;;5092186;28;20052;-77
2021/07/28 12:43:06;;;;;;;5.78;4.10;;;25.70;99.90;;;;;;5091657;28;20123;-78
2021/07/28 12:45:33;;;;;;;7.60;4.38;;;25.80;99.90;;;;;;5091890;28;20044;-78
2021/07/28 12:48:00;;;;;;;11.18;4.50;;;25.90;99.90;;;;;;5091480;28;20150;-78
2021/07/28 12:50:27;;;;;;;6.18;4.05;;;26.00;99.90;;;;;;5091424;28;20138;-78
2021/07/28 12:52:56;;;;;;;8.25;3.78;;;25.90;99.90;;;;;;5091284;28;20529;-79
2021/07/28 12:55:23;;;;;;;5.75;4.15;;;25.90;99.90;;;;;;5091329;28;20076;-77